sensor_id;sensor_type;location;lat;lon;timestamp;pressure;altitude;pressure_sealevel;temperature;humidity
71915;BME280;60387;49.994;14.660;2022-12-18T00:00:14;99111.63;;;-5.29;60.63
71915;BME280;60387;49.994;14.660;2022-12-18T00:02:47;99111.13;;;-5.33;59.86
71915;BME280;60387;49.994;14.660;2022-12-18T00:05:21;99117.41;;;-5.42;60.20
71915;BME280;60387;49.994;14.660;2022-12-18T00:07:54;99113.97;;;-5.42;60.40
71915;BME280;60387;49.994;14.660;2022-12-18T00:10:28;99121.38;;;-5.46;60.37
71915;BME280;60387;49.994;14.660;2022-12-18T00:13:02;99130.63;;;-5.50;60.31
71915;BME280;60387;49.994;14.660;2022-12-18T00:15:36;99133.94;;;-5.48;60.60
71915;BME280;60387;49.994;14.660;2022-12-18T00:18:09;99127.66;;;-5.55;60.02
71915;BME280;60387;49.994;14.660;2022-12-18T00:20:43;99127.00;;;-5.57;60.35
71915;BME280;60387;49.994;14.660;2022-12-18T00:23:16;99120.41;;;-5.61;60.05
71915;BME280;60387;49.994;14.660;2022-12-18T00:25:49;99110.50;;;-5.67;60.18
71915;BME280;60387;49.994;14.660;2022-12-18T00:28:22;99119.41;;;-5.68;60.07
71915;BME280;60387;49.994;14.660;2022-12-18T00:31:06;99122.72;;;-5.66;59.86
71915;BME280;60387;49.994;14.660;2022-12-18T00:33:40;99121.72;;;-5.73;60.18
71915;BME280;60387;49.994;14.660;2022-12-18T00:36:18;99131.94;;;-5.70;60.99
71915;BME280;60387;49.994;14.660;2022-12-18T00:38:54;99135.25;;;-5.68;60.81
71915;BME280;60387;49.994;14.660;2022-12-18T00:41:28;99132.28;;;-5.73;60.17
71915;BME280;60387;49.994;14.660;2022-12-18T00:44:02;99149.13;;;-5.74;59.79
71915;BME280;60387;49.994;14.660;2022-12-18T00:46:36;99140.22;;;-5.81;60.25
71915;BME280;60387;49.994;14.660;2022-12-18T00:49:10;99155.06;;;-5.80;60.53
71915;BME280;60387;49.994;14.660;2022-12-18T00:51:43;99139.38;;;-5.89;60.23
71915;BME280;60387;49.994;14.660;2022-12-18T00:54:17;99158.69;;;-5.89;60.44
71915;BME280;60387;49.994;14.660;2022-12-18T00:56:50;99168.06;;;-5.94;59.46
71915;BME280;60387;49.994;14.660;2022-12-18T00:59:23;99169.38;;;-5.98;59.72
71915;BME280;60387;49.994;14.660;2022-12-18T01:01:57;99167.56;;;-6.06;60.00
71915;BME280;60387;49.994;14.660;2022-12-18T01:04:33;99173.81;;;-6.07;59.90
71915;BME280;60387;49.994;14.660;2022-12-18T01:07:07;99170.69;;;-6.10;60.15
71915;BME280;60387;49.994;14.660;2022-12-18T01:09:40;99169.34;;;-6.14;60.16
71915;BME280;60387;49.994;14.660;2022-12-18T01:12:13;99164.06;;;-6.14;60.08
71915;BME280;60387;49.994;14.660;2022-12-18T01:14:47;99170.19;;;-6.13;59.69
71915;BME280;60387;49.994;14.660;2022-12-18T01:17:21;99175.78;;;-6.16;60.06
71915;BME280;60387;49.994;14.660;2022-12-18T01:19:54;99178.56;;;-6.18;59.83
71915;BME280;60387;49.994;14.660;2022-12-18T01:22:28;99172.63;;;-6.20;59.92
71915;BME280;60387;49.994;14.660;2022-12-18T01:25:01;99178.72;;;-6.19;59.86
71915;BME280;60387;49.994;14.660;2022-12-18T01:27:35;99178.22;;;-6.23;60.47
71915;BME280;60387;49.994;14.660;2022-12-18T01:30:08;99183.47;;;-6.23;60.49
71915;BME280;60387;49.994;14.660;2022-12-18T01:32:42;99197.84;;;-6.25;59.67
71915;BME280;60387;49.994;14.660;2022-12-18T01:35:15;99195.34;;;-6.27;60.30
71915;BME280;60387;49.994;14.660;2022-12-18T01:37:48;99194.50;;;-6.27;60.28
71915;BME280;60387;49.994;14.660;2022-12-18T01:40:22;99187.91;;;-6.31;60.39
71915;BME280;60387;49.994;14.660;2022-12-18T01:42:55;99190.56;;;-6.31;60.39
71915;BME280;60387;49.994;14.660;2022-12-18T01:45:31;99194.97;;;-6.32;60.47
71915;BME280;60387;49.994;14.660;2022-12-18T01:48:08;99196.44;;;-6.37;59.94
71915;BME280;60387;49.994;14.660;2022-12-18T01:50:42;99193.16;;;-6.39;60.56
71915;BME280;60387;49.994;14.660;2022-12-18T01:53:19;99208.31;;;-6.41;59.48
71915;BME280;60387;49.994;14.660;2022-12-18T01:55:57;99201.53;;;-6.44;59.93
71915;BME280;60387;49.994;14.660;2022-12-18T02:01:17;99204.50;;;-6.47;60.66
71915;BME280;60387;49.994;14.660;2022-12-18T02:03:51;99201.88;;;-6.47;60.96
71915;BME280;60387;49.994;14.660;2022-12-18T02:06:39;99202.69;;;-6.46;60.94
71915;BME280;60387;49.994;14.660;2022-12-18T02:09:20;99209.44;;;-6.44;60.83
71915;BME280;60387;49.994;14.660;2022-12-18T02:12:10;99216.88;;;-6.39;61.14
71915;BME280;60387;49.994;14.660;2022-12-18T02:17:39;99206.00;;;-6.36;60.98
71915;BME280;60387;49.994;14.660;2022-12-18T02:20:23;99203.84;;;-6.41;60.62
71915;BME280;60387;49.994;14.660;2022-12-18T02:23:21;99221.66;;;-6.35;60.45
71915;BME280;60387;49.994;14.660;2022-12-18T02:29:15;99214.72;;;-6.44;60.59
71915;BME280;60387;49.994;14.660;2022-12-18T02:31:52;99218.81;;;-6.49;60.39
71915;BME280;60387;49.994;14.660;2022-12-18T02:34:30;99227.53;;;-6.49;60.56
71915;BME280;60387;49.994;14.660;2022-12-18T02:37:08;99227.38;;;-6.47;60.87
71915;BME280;60387;49.994;14.660;2022-12-18T02:39:44;99232.97;;;-6.50;61.51
71915;BME280;60387;49.994;14.660;2022-12-18T02:42:19;99242.69;;;-6.51;61.03
71915;BME280;60387;49.994;14.660;2022-12-18T02:44:53;99237.25;;;-6.49;60.75
71915;BME280;60387;49.994;14.660;2022-12-18T02:47:32;99238.06;;;-6.49;60.92
71915;BME280;60387;49.994;14.660;2022-12-18T02:53:36;99236.59;;;-6.51;61.63
71915;BME280;60387;49.994;14.660;2022-12-18T02:56:20;99232.47;;;-6.54;61.51
71915;BME280;60387;49.994;14.660;2022-12-18T03:01:56;99228.69;;;-6.51;61.22
71915;BME280;60387;49.994;14.660;2022-12-18T03:04:43;99240.41;;;-6.46;60.70
71915;BME280;60387;49.994;14.660;2022-12-18T03:07:26;99244.50;;;-6.43;60.61
71915;BME280;60387;49.994;14.660;2022-12-18T03:10:01;99252.13;;;-6.40;60.97
71915;BME280;60387;49.994;14.660;2022-12-18T03:12:38;99243.22;;;-6.39;60.81
71915;BME280;60387;49.994;14.660;2022-12-18T03:15:52;99248.16;;;-6.36;60.42
71915;BME280;60387;49.994;14.660;2022-12-18T03:18:48;99252.31;;;-6.34;60.89
71915;BME280;60387;49.994;14.660;2022-12-18T03:21:28;99251.31;;;-6.33;60.64
71915;BME280;60387;49.994;14.660;2022-12-18T03:24:07;99241.16;;;-6.28;60.83
71915;BME280;60387;49.994;14.660;2022-12-18T03:26:46;99251.53;;;-6.18;60.65
71915;BME280;60387;49.994;14.660;2022-12-18T03:29:24;99259.47;;;-6.11;61.31
71915;BME280;60387;49.994;14.660;2022-12-18T03:32:08;99253.91;;;-6.07;60.64
71915;BME280;60387;49.994;14.660;2022-12-18T03:34:46;99261.53;;;-5.97;60.40
71915;BME280;60387;49.994;14.660;2022-12-18T03:37:21;99269.47;;;-5.89;60.30
71915;BME280;60387;49.994;14.660;2022-12-18T03:39:55;99258.28;;;-5.83;60.74
71915;BME280;60387;49.994;14.660;2022-12-18T03:42:50;99257.28;;;-5.74;61.11
71915;BME280;60387;49.994;14.660;2022-12-18T03:45:31;99269.81;;;-5.68;60.45
71915;BME280;60387;49.994;14.660;2022-12-18T03:48:07;99272.66;;;-5.61;61.11
71915;BME280;60387;49.994;14.660;2022-12-18T03:50:49;99262.59;;;-5.58;60.94
71915;BME280;60387;49.994;14.660;2022-12-18T03:56:11;99271.50;;;-5.43;60.75
71915;BME280;60387;49.994;14.660;2022-12-18T03:58:47;99271.50;;;-5.35;60.86
71915;BME280;60387;49.994;14.660;2022-12-18T04:01:26;99267.56;;;-5.31;61.08
71915;BME280;60387;49.994;14.660;2022-12-18T04:04:02;99277.81;;;-5.20;61.03
71915;BME280;60387;49.994;14.660;2022-12-18T04:06:37;99271.53;;;-5.11;60.62
71915;BME280;60387;49.994;14.660;2022-12-18T04:09:11;99270.38;;;-5.08;60.47
71915;BME280;60387;49.994;14.660;2022-12-18T04:11:46;99284.91;;;-4.96;60.51
71915;BME280;60387;49.994;14.660;2022-12-18T04:14:19;99279.97;;;-4.91;60.74
71915;BME280;60387;49.994;14.660;2022-12-18T04:16:53;99289.69;;;-4.84;60.97
71915;BME280;60387;49.994;14.660;2022-12-18T04:19:26;99293.47;;;-4.78;60.86
71915;BME280;60387;49.994;14.660;2022-12-18T04:21:59;99288.38;;;-4.72;60.95
71915;BME280;60387;49.994;14.660;2022-12-18T04:24:32;99281.59;;;-4.66;60.91
71915;BME280;60387;49.994;14.660;2022-12-18T04:27:06;99290.81;;;-4.54;60.86
71915;BME280;60387;49.994;14.660;2022-12-18T04:29:40;99285.03;;;-4.50;61.19
71915;BME280;60387;49.994;14.660;2022-12-18T04:32:13;99286.00;;;-4.43;60.76
71915;BME280;60387;49.994;14.660;2022-12-18T04:34:46;99299.38;;;-4.36;61.04
71915;BME280;60387;49.994;14.660;2022-12-18T04:37:19;99313.06;;;-4.25;61.18
71915;BME280;60387;49.994;14.660;2022-12-18T04:39:53;99306.94;;;-4.17;60.91
71915;BME280;60387;49.994;14.660;2022-12-18T04:42:26;99305.25;;;-4.10;61.36
71915;BME280;60387;49.994;14.660;2022-12-18T04:44:59;99306.38;;;-4.05;62.08
71915;BME280;60387;49.994;14.660;2022-12-18T04:47:33;99306.38;;;-4.05;61.18
71915;BME280;60387;49.994;14.660;2022-12-18T04:50:06;99308.19;;;-3.97;61.65
71915;BME280;60387;49.994;14.660;2022-12-18T04:52:40;99306.84;;;-3.93;61.15
71915;BME280;60387;49.994;14.660;2022-12-18T04:55:13;99302.88;;;-3.89;62.01
71915;BME280;60387;49.994;14.660;2022-12-18T04:57:46;99297.88;;;-3.84;61.58
71915;BME280;60387;49.994;14.660;2022-12-18T05:00:20;99297.34;;;-3.80;61.37
71915;BME280;60387;49.994;14.660;2022-12-18T05:02:53;99288.28;;;-3.85;61.90
71915;BME280;60387;49.994;14.660;2022-12-18T05:05:27;99297.66;;;-3.75;61.56
71915;BME280;60387;49.994;14.660;2022-12-18T05:08:00;99310.22;;;-3.69;61.66
71915;BME280;60387;49.994;14.660;2022-12-18T05:10:33;99314.16;;;-3.65;61.08
71915;BME280;60387;49.994;14.660;2022-12-18T05:13:06;99307.84;;;-3.64;61.32
71915;BME280;60387;49.994;14.660;2022-12-18T05:15:40;99318.41;;;-3.56;61.41
71915;BME280;60387;49.994;14.660;2022-12-18T05:18:13;99309.19;;;-3.60;61.34
71915;BME280;60387;49.994;14.660;2022-12-18T05:20:46;99325.66;;;-3.50;61.11
71915;BME280;60387;49.994;14.660;2022-12-18T05:23:21;99337.56;;;-3.46;61.86
71915;BME280;60387;49.994;14.660;2022-12-18T05:25:57;99301.41;;;-3.61;61.20
71915;BME280;60387;49.994;14.660;2022-12-18T05:28:32;99333.09;;;-3.45;61.35
71915;BME280;60387;49.994;14.660;2022-12-18T05:31:05;99349.31;;;-3.40;61.96
71915;BME280;60387;49.994;14.660;2022-12-18T05:33:39;99340.03;;;-3.44;62.29
71915;BME280;60387;49.994;14.660;2022-12-18T05:36:12;99353.13;;;-3.43;61.21
71915;BME280;60387;49.994;14.660;2022-12-18T05:38:45;99353.94;;;-3.42;61.33
71915;BME280;60387;49.994;14.660;2022-12-18T05:41:19;99332.28;;;-3.54;62.59
71915;BME280;60387;49.994;14.660;2022-12-18T05:43:52;99340.56;;;-3.49;62.22
71915;BME280;60387;49.994;14.660;2022-12-18T05:46:25;99352.13;;;-3.42;62.26
71915;BME280;60387;49.994;14.660;2022-12-18T05:49:00;99353.94;;;-3.42;62.28
71915;BME280;60387;49.994;14.660;2022-12-18T05:51:33;99354.63;;;-3.48;62.09
71915;BME280;60387;49.994;14.660;2022-12-18T05:54:06;99368.53;;;-3.46;62.24
71915;BME280;60387;49.994;14.660;2022-12-18T05:56:40;99368.69;;;-3.48;61.93
71915;BME280;60387;49.994;14.660;2022-12-18T05:59:13;99359.44;;;-3.52;62.24
71915;BME280;60387;49.994;14.660;2022-12-18T06:01:46;99366.41;;;-3.51;62.43
71915;BME280;60387;49.994;14.660;2022-12-18T06:04:20;99367.19;;;-3.50;62.26
71915;BME280;60387;49.994;14.660;2022-12-18T06:06:53;99368.03;;;-3.50;62.27
71915;BME280;60387;49.994;14.660;2022-12-18T06:09:26;99374.16;;;-3.49;61.45
71915;BME280;60387;49.994;14.660;2022-12-18T06:11:59;99371.38;;;-3.56;62.03
71915;BME280;60387;49.994;14.660;2022-12-18T06:14:33;99371.56;;;-3.57;62.10
71915;BME280;60387;49.994;14.660;2022-12-18T06:17:06;99368.59;;;-3.62;61.93
71915;BME280;60387;49.994;14.660;2022-12-18T06:19:39;99380.34;;;-3.65;63.27
71915;BME280;60387;49.994;14.660;2022-12-18T06:22:12;99375.03;;;-3.65;62.46
71915;BME280;60387;49.994;14.660;2022-12-18T06:24:46;99386.00;;;-3.68;62.42
71915;BME280;60387;49.994;14.660;2022-12-18T06:27:19;99382.69;;;-3.70;62.58
71915;BME280;60387;49.994;14.660;2022-12-18T06:29:52;99392.28;;;-3.69;61.80
71915;BME280;60387;49.994;14.660;2022-12-18T06:32:26;99396.09;;;-3.71;62.48
71915;BME280;60387;49.994;14.660;2022-12-18T06:34:59;99395.75;;;-3.76;62.73
71915;BME280;60387;49.994;14.660;2022-12-18T06:37:33;99402.56;;;-3.82;62.18
71915;BME280;60387;49.994;14.660;2022-12-18T06:40:06;99409.03;;;-3.84;62.47
71915;BME280;60387;49.994;14.660;2022-12-18T06:42:40;99397.28;;;-3.90;62.52
71915;BME280;60387;49.994;14.660;2022-12-18T06:45:16;99412.84;;;-3.87;61.94
71915;BME280;60387;49.994;14.660;2022-12-18T06:47:49;99414.81;;;-3.89;62.16
71915;BME280;60387;49.994;14.660;2022-12-18T06:50:23;99424.09;;;-3.85;62.07
71915;BME280;60387;49.994;14.660;2022-12-18T06:52:56;99441.28;;;-3.89;62.87
71915;BME280;60387;49.994;14.660;2022-12-18T06:55:29;99425.41;;;-3.97;62.89
71915;BME280;60387;49.994;14.660;2022-12-18T06:58:02;99422.47;;;-4.02;62.73
71915;BME280;60387;49.994;14.660;2022-12-18T07:00:36;99424.78;;;-3.99;62.25
71915;BME280;60387;49.994;14.660;2022-12-18T07:03:09;99435.84;;;-3.95;62.59
71915;BME280;60387;49.994;14.660;2022-12-18T07:05:43;99448.59;;;-3.99;62.51
71915;BME280;60387;49.994;14.660;2022-12-18T07:08:16;99455.38;;;-3.96;63.05
71915;BME280;60387;49.994;14.660;2022-12-18T07:10:49;99462.16;;;-4.02;62.57
71915;BME280;60387;49.994;14.660;2022-12-18T07:13:22;99461.16;;;-4.09;62.60
71915;BME280;60387;49.994;14.660;2022-12-18T07:16:06;99467.13;;;-4.07;62.87
71915;BME280;60387;49.994;14.660;2022-12-18T07:18:39;99468.09;;;-4.08;63.17
71915;BME280;60387;49.994;14.660;2022-12-18T07:21:15;99470.75;;;-4.08;63.14
71915;BME280;60387;49.994;14.660;2022-12-18T07:23:49;99474.06;;;-4.06;62.35
71915;BME280;60387;49.994;14.660;2022-12-18T07:26:22;99468.75;;;-4.06;62.46
71915;BME280;60387;49.994;14.660;2022-12-18T07:28:56;99460.50;;;-4.03;62.48
71915;BME280;60387;49.994;14.660;2022-12-18T07:31:29;99474.41;;;-4.01;62.29
71915;BME280;60387;49.994;14.660;2022-12-18T07:34:02;99482.34;;;-4.01;62.25
71915;BME280;60387;49.994;14.660;2022-12-18T07:36:35;99472.75;;;-4.02;62.40
71915;BME280;60387;49.994;14.660;2022-12-18T07:39:11;99491.06;;;-3.92;62.15
71915;BME280;60387;49.994;14.660;2022-12-18T07:41:44;99490.25;;;-3.93;61.74
71915;BME280;60387;49.994;14.660;2022-12-18T07:44:17;99489.91;;;-3.90;62.52
71915;BME280;60387;49.994;14.660;2022-12-18T07:46:51;99501.34;;;-3.89;62.51
71915;BME280;60387;49.994;14.660;2022-12-18T07:49:24;99506.63;;;-3.81;62.57
71915;BME280;60387;49.994;14.660;2022-12-18T07:51:58;99505.78;;;-3.82;62.69
71915;BME280;60387;49.994;14.660;2022-12-18T07:54:31;99509.44;;;-3.83;62.41
71915;BME280;60387;49.994;14.660;2022-12-18T07:57:04;99503.50;;;-3.85;62.09
71915;BME280;60387;49.994;14.660;2022-12-18T07:59:37;99510.09;;;-3.81;61.94
71915;BME280;60387;49.994;14.660;2022-12-18T08:02:11;99510.44;;;-3.76;63.02
71915;BME280;60387;49.994;14.660;2022-12-18T08:04:44;99505.78;;;-3.74;62.13
71915;BME280;60387;49.994;14.660;2022-12-18T08:07:17;99502.63;;;-3.69;62.07
71915;BME280;60387;49.994;14.660;2022-12-18T08:09:50;99491.75;;;-3.74;62.37
71915;BME280;60387;49.994;14.660;2022-12-18T08:12:24;99505.75;;;-3.58;62.47
71915;BME280;60387;49.994;14.660;2022-12-18T08:14:57;99506.41;;;-3.56;62.67
71915;BME280;60387;49.994;14.660;2022-12-18T08:17:30;99505.25;;;-3.45;61.98
71915;BME280;60387;49.994;14.660;2022-12-18T08:20:04;99512.31;;;-3.38;62.11
71915;BME280;60387;49.994;14.660;2022-12-18T08:22:37;99508.03;;;-3.39;61.55
71915;BME280;60387;49.994;14.660;2022-12-18T08:25:10;99521.59;;;-3.34;61.79
71915;BME280;60387;49.994;14.660;2022-12-18T08:27:44;99500.41;;;-3.34;61.62
71915;BME280;60387;49.994;14.660;2022-12-18T08:30:17;99507.34;;;-3.25;61.55
71915;BME280;60387;49.994;14.660;2022-12-18T08:32:51;99504.34;;;-3.22;62.03
71915;BME280;60387;49.994;14.660;2022-12-18T08:35:25;99509.44;;;-3.13;62.40
71915;BME280;60387;49.994;14.660;2022-12-18T08:37:58;99497.31;;;-3.07;61.31
71915;BME280;60387;49.994;14.660;2022-12-18T08:40:31;99496.81;;;-3.03;61.38
71915;BME280;60387;49.994;14.660;2022-12-18T08:43:04;99500.22;;;-2.94;61.83
71915;BME280;60387;49.994;14.660;2022-12-18T08:45:38;99509.63;;;-2.84;61.25
71915;BME280;60387;49.994;14.660;2022-12-18T08:48:11;99501.16;;;-2.79;61.24
71915;BME280;60387;49.994;14.660;2022-12-18T08:50:54;99511.03;;;-2.65;61.56
71915;BME280;60387;49.994;14.660;2022-12-18T08:53:27;99508.88;;;-2.62;60.94
71915;BME280;60387;49.994;14.660;2022-12-18T08:56:01;99509.63;;;-2.53;60.93
71915;BME280;60387;49.994;14.660;2022-12-18T08:58:34;99511.25;;;-2.44;61.45
71915;BME280;60387;49.994;14.660;2022-12-18T09:01:10;99494.09;;;-2.34;61.23
71915;BME280;60387;49.994;14.660;2022-12-18T09:03:47;99488.94;;;-2.35;60.50
71915;BME280;60387;49.994;14.660;2022-12-18T09:06:21;99497.97;;;-2.22;61.23
71915;BME280;60387;49.994;14.660;2022-12-18T09:08:55;99505.00;;;-2.06;61.31
71915;BME280;60387;49.994;14.660;2022-12-18T09:11:31;99515.84;;;-1.93;60.91
71915;BME280;60387;49.994;14.660;2022-12-18T09:14:04;99505.72;;;-1.75;61.17
71915;BME280;60387;49.994;14.660;2022-12-18T09:16:38;99513.91;;;-1.62;60.98
71915;BME280;60387;49.994;14.660;2022-12-18T09:19:11;99508.78;;;-1.49;60.51
71915;BME280;60387;49.994;14.660;2022-12-18T09:21:44;99509.00;;;-1.36;60.56
71915;BME280;60387;49.994;14.660;2022-12-18T09:24:17;99501.78;;;-1.28;59.94
71915;BME280;60387;49.994;14.660;2022-12-18T09:26:54;99491.69;;;-1.18;60.07
71915;BME280;60387;49.994;14.660;2022-12-18T09:29:27;99498.09;;;-1.12;58.67
71915;BME280;60387;49.994;14.660;2022-12-18T09:32:00;99492.97;;;-1.14;59.12
71915;BME280;60387;49.994;14.660;2022-12-18T09:34:34;99493.97;;;-1.15;59.76
71915;BME280;60387;49.994;14.660;2022-12-18T09:37:07;99494.25;;;-1.10;59.76
71915;BME280;60387;49.994;14.660;2022-12-18T09:39:40;99497.72;;;-1.09;58.96
71915;BME280;60387;49.994;14.660;2022-12-18T09:42:21;99492.22;;;-1.08;59.59
71915;BME280;60387;49.994;14.660;2022-12-18T09:44:55;99507.53;;;-0.95;59.80
71915;BME280;60387;49.994;14.660;2022-12-18T09:47:30;99519.56;;;-0.85;58.97
71915;BME280;60387;49.994;14.660;2022-12-18T09:50:34;99524.63;;;-0.69;59.33
71915;BME280;60387;49.994;14.660;2022-12-18T09:53:16;99525.38;;;-0.60;59.66
71915;BME280;60387;49.994;14.660;2022-12-18T09:55:51;99522.09;;;-0.41;60.09
71915;BME280;60387;49.994;14.660;2022-12-18T09:58:32;99533.09;;;-0.30;59.49
71915;BME280;60387;49.994;14.660;2022-12-18T10:01:14;99532.41;;;-0.17;59.20
71915;BME280;60387;49.994;14.660;2022-12-18T10:03:49;99533.56;;;-0.06;59.70
71915;BME280;60387;49.994;14.660;2022-12-18T10:06:35;99528.81;;;0.11;58.93
71915;BME280;60387;49.994;14.660;2022-12-18T10:17:55;99550.00;;;0.46;58.96
71915;BME280;60387;49.994;14.660;2022-12-18T10:20:47;99543.94;;;0.52;58.25
71915;BME280;60387;49.994;14.660;2022-12-18T10:23:54;99539.44;;;0.53;58.14
71915;BME280;60387;49.994;14.660;2022-12-18T10:26:34;99531.44;;;0.53;58.36
71915;BME280;60387;49.994;14.660;2022-12-18T10:29:15;99529.84;;;0.58;56.67
71915;BME280;60387;49.994;14.660;2022-12-18T10:31:48;99523.88;;;0.56;56.89
71915;BME280;60387;49.994;14.660;2022-12-18T10:34:23;99514.03;;;0.57;57.26
71915;BME280;60387;49.994;14.660;2022-12-18T10:36:56;99511.19;;;0.65;56.51
71915;BME280;60387;49.994;14.660;2022-12-18T10:39:30;99514.31;;;0.68;57.13
71915;BME280;60387;49.994;14.660;2022-12-18T10:42:15;99508.56;;;0.71;57.57
71915;BME280;60387;49.994;14.660;2022-12-18T10:45:01;99495.53;;;0.83;58.33
71915;BME280;60387;49.994;14.660;2022-12-18T10:47:36;99488.00;;;0.93;56.48
71915;BME280;60387;49.994;14.660;2022-12-18T10:50:34;99478.94;;;0.87;56.81
71915;BME280;60387;49.994;14.660;2022-12-18T10:53:18;99476.25;;;0.87;57.02
71915;BME280;60387;49.994;14.660;2022-12-18T10:55:54;99474.28;;;0.96;57.64
71915;BME280;60387;49.994;14.660;2022-12-18T11:01:09;99461.63;;;1.11;57.86
71915;BME280;60387;49.994;14.660;2022-12-18T11:03:45;99459.84;;;1.24;57.70
71915;BME280;60387;49.994;14.660;2022-12-18T11:06:21;99453.06;;;1.28;57.49
71915;BME280;60387;49.994;14.660;2022-12-18T11:09:28;99441.31;;;1.16;55.63
71915;BME280;60387;49.994;14.660;2022-12-18T11:12:24;99441.25;;;1.03;56.04
71915;BME280;60387;49.994;14.660;2022-12-18T11:14:57;99450.03;;;0.91;56.21
71915;BME280;60387;49.994;14.660;2022-12-18T11:17:32;99450.44;;;0.88;56.86
71915;BME280;60387;49.994;14.660;2022-12-18T11:23:00;99438.34;;;0.92;57.14
71915;BME280;60387;49.994;14.660;2022-12-18T11:25:34;99437.53;;;0.98;57.49
71915;BME280;60387;49.994;14.660;2022-12-18T11:28:27;99439.03;;;1.13;57.33
71915;BME280;60387;49.994;14.660;2022-12-18T11:34:10;99452.00;;;1.16;56.06
71915;BME280;60387;49.994;14.660;2022-12-18T11:36:46;99447.81;;;1.01;55.47
71915;BME280;60387;49.994;14.660;2022-12-18T11:42:30;99452.25;;;0.87;56.64
71915;BME280;60387;49.994;14.660;2022-12-18T11:47:54;99439.97;;;0.93;57.08
71915;BME280;60387;49.994;14.660;2022-12-18T11:53:18;99455.63;;;1.02;57.48
71915;BME280;60387;49.994;14.660;2022-12-18T11:56:25;99458.56;;;1.14;57.46
71915;BME280;60387;49.994;14.660;2022-12-18T12:02:33;99448.34;;;1.30;57.19
71915;BME280;60387;49.994;14.660;2022-12-18T12:10:55;99446.50;;;1.31;56.02
71915;BME280;60387;49.994;14.660;2022-12-18T12:14:03;99446.88;;;1.21;56.57
71915;BME280;60387;49.994;14.660;2022-12-18T12:16:48;99443.59;;;1.19;56.80
71915;BME280;60387;49.994;14.660;2022-12-18T12:19:39;99446.06;;;1.21;56.52
71915;BME280;60387;49.994;14.660;2022-12-18T12:25:12;99456.09;;;1.19;56.93
71915;BME280;60387;49.994;14.660;2022-12-18T12:39:30;99455.50;;;1.23;57.39
71915;BME280;60387;49.994;14.660;2022-12-18T12:42:18;99460.22;;;1.21;56.96
71915;BME280;60387;49.994;14.660;2022-12-18T12:44:57;99468.66;;;1.25;57.13
71915;BME280;60387;49.994;14.660;2022-12-18T12:47:38;99463.50;;;1.23;57.09
71915;BME280;60387;49.994;14.660;2022-12-18T12:50:18;99459.41;;;1.21;56.94
71915;BME280;60387;49.994;14.660;2022-12-18T12:52:55;99452.63;;;1.18;57.43
71915;BME280;60387;49.994;14.660;2022-12-18T12:55:29;99461.06;;;1.22;57.05
71915;BME280;60387;49.994;14.660;2022-12-18T13:00:58;99457.16;;;1.24;57.58
71915;BME280;60387;49.994;14.660;2022-12-18T13:03:46;99461.91;;;1.29;56.95
71915;BME280;60387;49.994;14.660;2022-12-18T13:09:21;99479.56;;;1.30;57.12
71915;BME280;60387;49.994;14.660;2022-12-18T13:12:04;99487.75;;;1.22;56.71
71915;BME280;60387;49.994;14.660;2022-12-18T13:14:42;99487.31;;;1.18;57.31
71915;BME280;60387;49.994;14.660;2022-12-18T13:22:48;99494.44;;;1.05;57.45
71915;BME280;60387;49.994;14.660;2022-12-18T13:25:33;99490.06;;;0.97;57.54
71915;BME280;60387;49.994;14.660;2022-12-18T13:28:12;99480.97;;;0.85;56.87
71915;BME280;60387;49.994;14.660;2022-12-18T13:30:48;99491.03;;;0.83;57.17
71915;BME280;60387;49.994;14.660;2022-12-18T13:36:47;99474.78;;;0.78;56.64
71915;BME280;60387;49.994;14.660;2022-12-18T13:44:46;99466.91;;;0.36;56.20
71915;BME280;60387;49.994;14.660;2022-12-18T13:47:36;99474.88;;;0.30;57.65
71915;BME280;60387;49.994;14.660;2022-12-18T13:50:25;99458.84;;;0.23;57.44
71915;BME280;60387;49.994;14.660;2022-12-18T13:52:59;99464.31;;;0.15;56.89
71915;BME280;60387;49.994;14.660;2022-12-18T13:55:32;99470.53;;;0.01;56.85
71915;BME280;60387;49.994;14.660;2022-12-18T13:58:06;99459.50;;;-0.16;56.34
71915;BME280;60387;49.994;14.660;2022-12-18T14:00:46;99471.72;;;-0.43;56.63
71915;BME280;60387;49.994;14.660;2022-12-18T14:03:23;99471.97;;;-0.59;56.01
71915;BME280;60387;49.994;14.660;2022-12-18T14:06:07;99467.91;;;-0.76;56.44
71915;BME280;60387;49.994;14.660;2022-12-18T14:08:42;99470.66;;;-0.98;56.28
71915;BME280;60387;49.994;14.660;2022-12-18T14:11:20;99465.84;;;-1.24;56.59
71915;BME280;60387;49.994;14.660;2022-12-18T14:13:56;99492.50;;;-1.46;56.92
71915;BME280;60387;49.994;14.660;2022-12-18T14:16:29;99495.31;;;-1.62;56.60
71915;BME280;60387;49.994;14.660;2022-12-18T14:19:03;99493.19;;;-1.81;56.89
71915;BME280;60387;49.994;14.660;2022-12-18T14:21:38;99491.41;;;-1.89;57.84
71915;BME280;60387;49.994;14.660;2022-12-18T14:26:48;99489.81;;;-1.98;58.50
71915;BME280;60387;49.994;14.660;2022-12-18T14:29:30;99500.50;;;-2.06;57.94
71915;BME280;60387;49.994;14.660;2022-12-18T14:32:15;99495.09;;;-2.12;57.86
71915;BME280;60387;49.994;14.660;2022-12-18T14:34:51;99500.41;;;-2.12;58.22
71915;BME280;60387;49.994;14.660;2022-12-18T14:37:26;99495.00;;;-2.19;58.53
71915;BME280;60387;49.994;14.660;2022-12-18T14:40:01;99490.91;;;-2.29;58.00
71915;BME280;60387;49.994;14.660;2022-12-18T14:42:36;99491.97;;;-2.38;58.30
71915;BME280;60387;49.994;14.660;2022-12-18T14:45:46;99503.31;;;-2.52;57.98
71915;BME280;60387;49.994;14.660;2022-12-18T14:48:25;99504.13;;;-2.74;58.57
71915;BME280;60387;49.994;14.660;2022-12-18T14:51:14;99505.84;;;-2.89;59.25
71915;BME280;60387;49.994;14.660;2022-12-18T14:53:56;99512.88;;;-3.04;58.75
71915;BME280;60387;49.994;14.660;2022-12-18T14:56:35;99511.28;;;-3.21;59.84
71915;BME280;60387;49.994;14.660;2022-12-18T14:59:15;99508.00;;;-3.31;60.25
71915;BME280;60387;49.994;14.660;2022-12-18T15:04:30;99504.88;;;-3.42;58.95
71915;BME280;60387;49.994;14.660;2022-12-18T15:09:38;99496.81;;;-3.49;59.59
71915;BME280;60387;49.994;14.660;2022-12-18T15:12:32;99487.06;;;-3.56;59.61
71915;BME280;60387;49.994;14.660;2022-12-18T15:20:56;99495.19;;;-3.66;59.63
71915;BME280;60387;49.994;14.660;2022-12-18T15:23:36;99480.31;;;-3.67;59.00